sensor_id;sensor_type;location;lat;lon;timestamp;P1;durP1;ratioP1;P2;durP2;ratioP2
55090;SDS011;40985;53.180;5.800;2022-10-15T00:00:42;122.60;;;60.45;;
55090;SDS011;40985;53.180;5.800;2022-10-15T00:03:08;106.70;;;60.10;;
55090;SDS011;40985;53.180;5.800;2022-10-15T00:05:38;128.07;;;62.83;;
55090;SDS011;40985;53.180;5.800;2022-10-15T00:08:04;111.22;;;59.88;;
55090;SDS011;40985;53.180;5.800;2022-10-15T00:10:31;117.30;;;60.03;;
55090;SDS011;40985;53.180;5.800;2022-10-15T00:12:57;113.72;;;61.53;;
55090;SDS011;40985;53.180;5.800;2022-10-15T00:15:23;126.72;;;62.85;;
55090;SDS011;40985;53.180;5.800;2022-10-15T00:17:49;119.53;;;60.10;;
55090;SDS011;40985;53.180;5.800;2022-10-15T00:20:15;128.57;;;62.28;;
55090;SDS011;40985;53.180;5.800;2022-10-15T00:22:41;124.95;;;61.20;;
55090;SDS011;40985;53.180;5.800;2022-10-15T00:25:07;119.43;;;60.25;;
55090;SDS011;40985;53.180;5.800;2022-10-15T00:27:33;117.28;;;60.13;;
55090;SDS011;40985;53.180;5.800;2022-10-15T00:29:59;127.15;;;62.20;;
55090;SDS011;40985;53.180;5.800;2022-10-15T00:32:27;136.75;;;61.70;;
55090;SDS011;40985;53.180;5.800;2022-10-15T00:34:54;126.43;;;62.13;;
55090;SDS011;40985;53.180;5.800;2022-10-15T00:37:20;134.02;;;61.83;;
55090;SDS011;40985;53.180;5.800;2022-10-15T00:39:46;135.63;;;61.83;;
55090;SDS011;40985;53.180;5.800;2022-10-15T00:42:12;144.52;;;60.97;;
55090;SDS011;40985;53.180;5.800;2022-10-15T00:44:54;138.73;;;61.35;;
55090;SDS011;40985;53.180;5.800;2022-10-15T00:47:23;138.10;;;62.20;;
55090;SDS011;40985;53.180;5.800;2022-10-15T00:49:52;125.47;;;58.20;;
55090;SDS011;40985;53.180;5.800;2022-10-15T00:52:25;111.82;;;55.50;;
55090;SDS011;40985;53.180;5.800;2022-10-15T00:54:59;131.70;;;57.20;;
55090;SDS011;40985;53.180;5.800;2022-10-15T00:57:37;134.98;;;57.85;;
55090;SDS011;40985;53.180;5.800;2022-10-15T01:00:06;129.00;;;57.55;;
55090;SDS011;40985;53.180;5.800;2022-10-15T01:02:34;133.85;;;58.78;;
55090;SDS011;40985;53.180;5.800;2022-10-15T01:05:00;120.32;;;56.58;;
55090;SDS011;40985;53.180;5.800;2022-10-15T01:07:26;122.63;;;59.38;;
55090;SDS011;40985;53.180;5.800;2022-10-15T01:09:51;141.52;;;61.58;;
55090;SDS011;40985;53.180;5.800;2022-10-15T01:17:54;122.45;;;57.30;;
55090;SDS011;40985;53.180;5.800;2022-10-15T01:28:45;115.10;;;56.38;;
55090;SDS011;40985;53.180;5.800;2022-10-15T01:31:43;124.00;;;58.78;;
55090;SDS011;40985;53.180;5.800;2022-10-15T01:39:40;122.90;;;59.17;;
55090;SDS011;40985;53.180;5.800;2022-10-15T01:42:14;101.97;;;52.90;;
55090;SDS011;40985;53.180;5.800;2022-10-15T01:44:52;120.38;;;55.30;;
55090;SDS011;40985;53.180;5.800;2022-10-15T01:47:23;101.40;;;50.25;;
55090;SDS011;40985;53.180;5.800;2022-10-15T01:50:00;113.60;;;51.90;;
55090;SDS011;40985;53.180;5.800;2022-10-15T01:52:29;106.10;;;48.90;;
55090;SDS011;40985;53.180;5.800;2022-10-15T01:54:58;83.32;;;43.45;;
55090;SDS011;40985;53.180;5.800;2022-10-15T01:57:26;77.38;;;41.85;;
55090;SDS011;40985;53.180;5.800;2022-10-15T01:59:52;83.32;;;42.55;;
55090;SDS011;40985;53.180;5.800;2022-10-15T02:02:18;90.43;;;43.35;;
55090;SDS011;40985;53.180;5.800;2022-10-15T02:04:44;92.13;;;42.72;;
55090;SDS011;40985;53.180;5.800;2022-10-15T02:07:13;78.90;;;38.92;;
55090;SDS011;40985;53.180;5.800;2022-10-15T02:09:56;69.68;;;39.58;;
55090;SDS011;40985;53.180;5.800;2022-10-15T02:21:06;69.00;;;35.05;;
55090;SDS011;40985;53.180;5.800;2022-10-15T02:26:13;75.05;;;36.03;;
55090;SDS011;40985;53.180;5.800;2022-10-15T02:28:41;66.13;;;35.92;;
55090;SDS011;40985;53.180;5.800;2022-10-15T02:31:08;67.40;;;35.05;;
55090;SDS011;40985;53.180;5.800;2022-10-15T02:33:38;67.68;;;36.15;;
55090;SDS011;40985;53.180;5.800;2022-10-15T02:36:04;87.45;;;39.15;;
55090;SDS011;40985;53.180;5.800;2022-10-15T02:38:31;80.15;;;39.53;;
55090;SDS011;40985;53.180;5.800;2022-10-15T02:40:58;80.40;;;41.08;;
55090;SDS011;40985;53.180;5.800;2022-10-15T02:43:25;91.88;;;42.90;;
55090;SDS011;40985;53.180;5.800;2022-10-15T02:45:50;82.00;;;40.55;;
55090;SDS011;40985;53.180;5.800;2022-10-15T02:48:16;102.22;;;45.42;;
55090;SDS011;40985;53.180;5.800;2022-10-15T02:50:42;87.30;;;43.10;;
55090;SDS011;40985;53.180;5.800;2022-10-15T02:53:08;119.15;;;49.75;;
55090;SDS011;40985;53.180;5.800;2022-10-15T02:55:33;106.60;;;48.67;;
55090;SDS011;40985;53.180;5.800;2022-10-15T02:57:59;114.03;;;53.25;;
55090;SDS011;40985;53.180;5.800;2022-10-15T03:00:25;100.30;;;50.22;;
55090;SDS011;40985;53.180;5.800;2022-10-15T03:02:50;118.30;;;52.80;;
55090;SDS011;40985;53.180;5.800;2022-10-15T03:05:16;119.43;;;53.05;;
55090;SDS011;40985;53.180;5.800;2022-10-15T03:07:42;128.27;;;56.08;;
55090;SDS011;40985;53.180;5.800;2022-10-15T03:10:07;108.93;;;51.75;;
55090;SDS011;40985;53.180;5.800;2022-10-15T03:12:33;117.25;;;53.50;;
55090;SDS011;40985;53.180;5.800;2022-10-15T03:14:59;119.15;;;53.95;;
55090;SDS011;40985;53.180;5.800;2022-10-15T03:17:25;136.77;;;56.83;;
55090;SDS011;40985;53.180;5.800;2022-10-15T03:19:50;114.40;;;52.25;;
55090;SDS011;40985;53.180;5.800;2022-10-15T03:22:16;104.70;;;51.80;;
55090;SDS011;40985;53.180;5.800;2022-10-15T03:24:42;129.90;;;54.65;;
55090;SDS011;40985;53.180;5.800;2022-10-15T03:27:07;122.60;;;53.42;;
55090;SDS011;40985;53.180;5.800;2022-10-15T03:29:33;118.97;;;51.88;;
55090;SDS011;40985;53.180;5.800;2022-10-15T03:31:58;114.72;;;52.88;;
55090;SDS011;40985;53.180;5.800;2022-10-15T03:34:24;119.28;;;53.28;;
55090;SDS011;40985;53.180;5.800;2022-10-15T03:36:50;137.75;;;55.75;;
55090;SDS011;40985;53.180;5.800;2022-10-15T03:39:15;110.28;;;53.17;;
55090;SDS011;40985;53.180;5.800;2022-10-15T03:41:41;126.35;;;54.47;;
55090;SDS011;40985;53.180;5.800;2022-10-15T03:44:07;133.85;;;57.70;;
55090;SDS011;40985;53.180;5.800;2022-10-15T03:46:32;125.05;;;56.10;;
55090;SDS011;40985;53.180;5.800;2022-10-15T03:48:58;121.03;;;54.47;;
55090;SDS011;40985;53.180;5.800;2022-10-15T03:51:24;113.55;;;53.17;;
55090;SDS011;40985;53.180;5.800;2022-10-15T03:53:50;127.32;;;53.85;;
55090;SDS011;40985;53.180;5.800;2022-10-15T03:56:16;129.45;;;56.42;;
55090;SDS011;40985;53.180;5.800;2022-10-15T03:58:41;120.03;;;55.42;;
55090;SDS011;40985;53.180;5.800;2022-10-15T04:01:08;139.77;;;56.78;;
55090;SDS011;40985;53.180;5.800;2022-10-15T04:03:38;137.10;;;57.15;;
55090;SDS011;40985;53.180;5.800;2022-10-15T04:06:04;133.93;;;56.88;;
55090;SDS011;40985;53.180;5.800;2022-10-15T04:08:30;138.27;;;56.67;;
55090;SDS011;40985;53.180;5.800;2022-10-15T04:10:56;129.75;;;55.92;;
55090;SDS011;40985;53.180;5.800;2022-10-15T04:13:23;151.60;;;59.42;;
55090;SDS011;40985;53.180;5.800;2022-10-15T04:15:49;164.65;;;59.28;;
55090;SDS011;40985;53.180;5.800;2022-10-15T04:18:14;151.68;;;58.20;;
55090;SDS011;40985;53.180;5.800;2022-10-15T04:20:40;118.28;;;53.55;;
55090;SDS011;40985;53.180;5.800;2022-10-15T04:23:07;136.02;;;58.13;;
55090;SDS011;40985;53.180;5.800;2022-10-15T04:25:33;145.88;;;58.33;;
55090;SDS011;40985;53.180;5.800;2022-10-15T04:28:00;115.93;;;53.90;;
55090;SDS011;40985;53.180;5.800;2022-10-15T04:30:26;146.70;;;57.97;;
55090;SDS011;40985;53.180;5.800;2022-10-15T04:32:52;144.48;;;58.60;;
55090;SDS011;40985;53.180;5.800;2022-10-15T04:35:18;128.80;;;53.33;;
55090;SDS011;40985;53.180;5.800;2022-10-15T04:37:44;150.30;;;59.50;;
55090;SDS011;40985;53.180;5.800;2022-10-15T04:40:10;150.60;;;59.33;;
55090;SDS011;40985;53.180;5.800;2022-10-15T04:42:37;167.75;;;61.67;;
55090;SDS011;40985;53.180;5.800;2022-10-15T04:45:04;156.90;;;58.30;;
55090;SDS011;40985;53.180;5.800;2022-10-15T04:47:30;172.00;;;62.20;;
55090;SDS011;40985;53.180;5.800;2022-10-15T04:49:56;163.75;;;61.70;;
55090;SDS011;40985;53.180;5.800;2022-10-15T04:52:22;146.10;;;58.00;;
55090;SDS011;40985;53.180;5.800;2022-10-15T04:54:48;156.13;;;61.28;;
55090;SDS011;40985;53.180;5.800;2022-10-15T04:57:13;148.73;;;61.50;;
55090;SDS011;40985;53.180;5.800;2022-10-15T04:59:39;150.55;;;61.40;;
55090;SDS011;40985;53.180;5.800;2022-10-15T05:02:06;140.93;;;61.10;;
55090;SDS011;40985;53.180;5.800;2022-10-15T05:04:31;193.43;;;65.18;;
55090;SDS011;40985;53.180;5.800;2022-10-15T05:06:57;173.90;;;63.22;;
55090;SDS011;40985;53.180;5.800;2022-10-15T05:09:23;165.10;;;65.07;;
55090;SDS011;40985;53.180;5.800;2022-10-15T05:11:49;164.90;;;65.55;;
55090;SDS011;40985;53.180;5.800;2022-10-15T05:14:14;179.85;;;68.28;;
55090;SDS011;40985;53.180;5.800;2022-10-15T05:16:40;164.35;;;65.45;;
55090;SDS011;40985;53.180;5.800;2022-10-15T05:19:06;191.05;;;67.43;;
55090;SDS011;40985;53.180;5.800;2022-10-15T05:21:33;160.65;;;65.90;;
55090;SDS011;40985;53.180;5.800;2022-10-15T05:23:59;162.95;;;65.35;;
55090;SDS011;40985;53.180;5.800;2022-10-15T05:26:26;186.63;;;70.90;;
55090;SDS011;40985;53.180;5.800;2022-10-15T05:28:54;179.35;;;70.53;;
55090;SDS011;40985;53.180;5.800;2022-10-15T05:31:22;172.25;;;67.80;;
55090;SDS011;40985;53.180;5.800;2022-10-15T05:33:49;165.68;;;67.50;;
55090;SDS011;40985;53.180;5.800;2022-10-15T05:36:20;162.90;;;67.45;;
55090;SDS011;40985;53.180;5.800;2022-10-15T05:38:49;167.82;;;65.20;;
55090;SDS011;40985;53.180;5.800;2022-10-15T05:41:19;149.43;;;64.50;;
55090;SDS011;40985;53.180;5.800;2022-10-15T05:43:45;160.15;;;64.80;;
55090;SDS011;40985;53.180;5.800;2022-10-15T05:46:12;169.70;;;66.20;;
55090;SDS011;40985;53.180;5.800;2022-10-15T05:48:38;156.48;;;61.65;;
55090;SDS011;40985;53.180;5.800;2022-10-15T05:51:04;139.05;;;62.20;;
55090;SDS011;40985;53.180;5.800;2022-10-15T05:53:32;175.15;;;67.22;;
55090;SDS011;40985;53.180;5.800;2022-10-15T05:55:59;223.55;;;72.75;;
55090;SDS011;40985;53.180;5.800;2022-10-15T05:58:25;161.88;;;63.80;;
55090;SDS011;40985;53.180;5.800;2022-10-15T06:00:58;140.48;;;61.22;;
55090;SDS011;40985;53.180;5.800;2022-10-15T06:03:26;167.55;;;67.20;;
55090;SDS011;40985;53.180;5.800;2022-10-15T06:05:52;170.27;;;66.85;;
55090;SDS011;40985;53.180;5.800;2022-10-15T06:08:18;200.75;;;68.68;;
55090;SDS011;40985;53.180;5.800;2022-10-15T06:10:44;261.27;;;77.57;;
55090;SDS011;40985;53.180;5.800;2022-10-15T06:13:10;159.65;;;65.35;;
55090;SDS011;40985;53.180;5.800;2022-10-15T06:15:37;160.10;;;65.88;;
55090;SDS011;40985;53.180;5.800;2022-10-15T06:18:04;166.40;;;68.32;;
55090;SDS011;40985;53.180;5.800;2022-10-15T06:20:31;173.77;;;70.10;;
55090;SDS011;40985;53.180;5.800;2022-10-15T06:22:57;184.50;;;71.88;;
55090;SDS011;40985;53.180;5.800;2022-10-15T06:25:24;175.07;;;71.85;;
55090;SDS011;40985;53.180;5.800;2022-10-15T06:27:50;195.57;;;70.05;;
55090;SDS011;40985;53.180;5.800;2022-10-15T06:30:16;185.73;;;72.43;;
55090;SDS011;40985;53.180;5.800;2022-10-15T06:32:49;162.05;;;70.82;;
55090;SDS011;40985;53.180;5.800;2022-10-15T06:35:16;179.25;;;71.60;;
55090;SDS011;40985;53.180;5.800;2022-10-15T06:37:43;173.55;;;71.53;;
55090;SDS011;40985;53.180;5.800;2022-10-15T06:40:09;188.32;;;70.95;;
55090;SDS011;40985;53.180;5.800;2022-10-15T06:42:35;190.70;;;71.47;;
55090;SDS011;40985;53.180;5.800;2022-10-15T06:45:01;172.50;;;69.68;;
55090;SDS011;40985;53.180;5.800;2022-10-15T06:47:28;177.05;;;70.20;;
55090;SDS011;40985;53.180;5.800;2022-10-15T06:49:53;215.27;;;73.95;;
55090;SDS011;40985;53.180;5.800;2022-10-15T06:52:19;178.23;;;73.05;;
55090;SDS011;40985;53.180;5.800;2022-10-15T06:54:45;150.27;;;66.88;;
55090;SDS011;40985;53.180;5.800;2022-10-15T06:57:11;191.40;;;70.00;;
55090;SDS011;40985;53.180;5.800;2022-10-15T06:59:36;179.35;;;72.57;;
55090;SDS011;40985;53.180;5.800;2022-10-15T07:02:02;197.00;;;74.55;;
55090;SDS011;40985;53.180;5.800;2022-10-15T07:04:28;151.45;;;69.20;;
55090;SDS011;40985;53.180;5.800;2022-10-15T07:06:54;189.38;;;73.45;;
55090;SDS011;40985;53.180;5.800;2022-10-15T07:09:19;182.48;;;72.53;;
55090;SDS011;40985;53.180;5.800;2022-10-15T07:11:45;175.07;;;72.82;;
55090;SDS011;40985;53.180;5.800;2022-10-15T07:14:11;174.55;;;73.05;;
55090;SDS011;40985;53.180;5.800;2022-10-15T07:16:36;169.70;;;71.35;;
55090;SDS011;40985;53.180;5.800;2022-10-15T07:19:04;194.43;;;74.47;;
55090;SDS011;40985;53.180;5.800;2022-10-15T07:21:30;173.93;;;71.10;;
55090;SDS011;40985;53.180;5.800;2022-10-15T07:23:55;161.95;;;70.47;;
55090;SDS011;40985;53.180;5.800;2022-10-15T07:26:21;177.60;;;71.30;;
55090;SDS011;40985;53.180;5.800;2022-10-15T07:28:47;187.48;;;73.00;;
55090;SDS011;40985;53.180;5.800;2022-10-15T07:31:12;176.23;;;71.78;;
55090;SDS011;40985;53.180;5.800;2022-10-15T07:33:40;182.60;;;72.00;;
55090;SDS011;40985;53.180;5.800;2022-10-15T07:36:07;163.57;;;68.50;;
55090;SDS011;40985;53.180;5.800;2022-10-15T07:38:35;154.23;;;65.40;;
55090;SDS011;40985;53.180;5.800;2022-10-15T07:41:02;167.23;;;68.05;;
55090;SDS011;40985;53.180;5.800;2022-10-15T07:43:28;161.38;;;66.45;;
55090;SDS011;40985;53.180;5.800;2022-10-15T07:45:54;164.25;;;70.43;;
55090;SDS011;40985;53.180;5.800;2022-10-15T07:48:20;148.55;;;65.82;;
55090;SDS011;40985;53.180;5.800;2022-10-15T07:50:46;173.48;;;67.90;;
55090;SDS011;40985;53.180;5.800;2022-10-15T07:53:21;157.13;;;64.03;;
55090;SDS011;40985;53.180;5.800;2022-10-15T07:55:47;155.13;;;61.85;;
55090;SDS011;40985;53.180;5.800;2022-10-15T07:58:13;152.77;;;57.40;;
55090;SDS011;40985;53.180;5.800;2022-10-15T08:00:39;157.68;;;55.10;;
55090;SDS011;40985;53.180;5.800;2022-10-15T08:03:04;130.60;;;47.42;;
55090;SDS011;40985;53.180;5.800;2022-10-15T08:05:30;116.25;;;43.47;;
55090;SDS011;40985;53.180;5.800;2022-10-15T08:07:56;116.93;;;42.72;;
55090;SDS011;40985;53.180;5.800;2022-10-15T08:10:22;107.03;;;40.78;;
55090;SDS011;40985;53.180;5.800;2022-10-15T08:12:48;115.82;;;41.40;;
55090;SDS011;40985;53.180;5.800;2022-10-15T08:15:13;120.65;;;41.85;;
55090;SDS011;40985;53.180;5.800;2022-10-15T08:17:39;124.25;;;42.60;;
55090;SDS011;40985;53.180;5.800;2022-10-15T08:20:05;115.93;;;43.40;;
55090;SDS011;40985;53.180;5.800;2022-10-15T08:22:31;132.05;;;47.10;;
55090;SDS011;40985;53.180;5.800;2022-10-15T08:24:58;121.88;;;46.42;;
55090;SDS011;40985;53.180;5.800;2022-10-15T08:27:23;117.93;;;48.80;;
55090;SDS011;40985;53.180;5.800;2022-10-15T08:29:49;116.85;;;50.97;;
55090;SDS011;40985;53.180;5.800;2022-10-15T08:32:15;132.35;;;50.72;;
55090;SDS011;40985;53.180;5.800;2022-10-15T08:34:42;118.60;;;52.78;;
55090;SDS011;40985;53.180;5.800;2022-10-15T08:37:07;101.97;;;50.40;;
55090;SDS011;40985;53.180;5.800;2022-10-15T08:39:33;109.78;;;50.60;;
55090;SDS011;40985;53.180;5.800;2022-10-15T08:42:11;104.68;;;50.67;;
55090;SDS011;40985;53.180;5.800;2022-10-15T08:44:46;108.93;;;51.63;;
55090;SDS011;40985;53.180;5.800;2022-10-15T08:50:10;97.13;;;46.90;;
55090;SDS011;40985;53.180;5.800;2022-10-15T08:52:44;96.78;;;45.20;;
55090;SDS011;40985;53.180;5.800;2022-10-15T08:55:13;90.60;;;43.67;;
55090;SDS011;40985;53.180;5.800;2022-10-15T09:11:17;68.15;;;41.85;;
55090;SDS011;40985;53.180;5.800;2022-10-15T09:13:46;64.15;;;39.92;;
55090;SDS011;40985;53.180;5.800;2022-10-15T09:16:14;68.20;;;41.58;;
55090;SDS011;40985;53.180;5.800;2022-10-15T09:18:41;63.42;;;40.45;;
55090;SDS011;40985;53.180;5.800;2022-10-15T09:21:10;65.63;;;40.60;;
55090;SDS011;40985;53.180;5.800;2022-10-15T09:23:38;64.63;;;40.60;;
55090;SDS011;40985;53.180;5.800;2022-10-15T09:32:20;63.30;;;42.28;;
55090;SDS011;40985;53.180;5.800;2022-10-15T09:37:53;67.68;;;42.60;;
55090;SDS011;40985;53.180;5.800;2022-10-15T09:40:53;69.15;;;42.28;;
55090;SDS011;40985;53.180;5.800;2022-10-15T09:43:40;73.78;;;42.85;;
55090;SDS011;40985;53.180;5.800;2022-10-15T09:46:09;67.97;;;40.92;;
55090;SDS011;40985;53.180;5.800;2022-10-15T09:51:34;58.90;;;34.92;;
55090;SDS011;40985;53.180;5.800;2022-10-15T09:56:54;57.85;;;32.97;;
55090;SDS011;40985;53.180;5.800;2022-10-15T09:59:21;57.28;;;32.58;;
55090;SDS011;40985;53.180;5.800;2022-10-15T10:01:58;53.83;;;30.33;;
55090;SDS011;40985;53.180;5.800;2022-10-15T10:04:25;50.00;;;28.70;;
55090;SDS011;40985;53.180;5.800;2022-10-15T10:06:57;52.70;;;28.73;;
55090;SDS011;40985;53.180;5.800;2022-10-15T10:09:36;49.38;;;29.17;;
55090;SDS011;40985;53.180;5.800;2022-10-15T10:12:17;49.95;;;27.10;;
55090;SDS011;40985;53.180;5.800;2022-10-15T10:14:59;51.28;;;27.77;;
55090;SDS011;40985;53.180;5.800;2022-10-15T10:17:32;45.03;;;26.08;;
55090;SDS011;40985;53.180;5.800;2022-10-15T10:22:43;46.58;;;25.67;;
55090;SDS011;40985;53.180;5.800;2022-10-15T10:30:21;51.88;;;25.70;;
55090;SDS011;40985;53.180;5.800;2022-10-15T10:32:47;51.25;;;26.13;;
55090;SDS011;40985;53.180;5.800;2022-10-15T10:35:20;45.83;;;25.05;;
55090;SDS011;40985;53.180;5.800;2022-10-15T10:37:48;45.92;;;26.15;;
55090;SDS011;40985;53.180;5.800;2022-10-15T10:40:33;44.53;;;25.38;;
55090;SDS011;40985;53.180;5.800;2022-10-15T10:43:11;40.53;;;23.23;;
55090;SDS011;40985;53.180;5.800;2022-10-15T10:45:48;38.08;;;22.65;;
55090;SDS011;40985;53.180;5.800;2022-10-15T10:48:19;38.15;;;23.35;;
55090;SDS011;40985;53.180;5.800;2022-10-15T10:51:18;37.63;;;23.05;;
55090;SDS011;40985;53.180;5.800;2022-10-15T10:56:15;32.80;;;22.02;;
55090;SDS011;40985;53.180;5.800;2022-10-15T10:58:44;32.60;;;20.92;;
55090;SDS011;40985;53.180;5.800;2022-10-15T11:01:12;33.53;;;20.58;;
55090;SDS011;40985;53.180;5.800;2022-10-15T11:03:43;29.33;;;19.63;;
55090;SDS011;40985;53.180;5.800;2022-10-15T11:21:45;22.73;;;17.80;;
55090;SDS011;40985;53.180;5.800;2022-10-15T11:24:11;21.70;;;17.08;;
55090;SDS011;40985;53.180;5.800;2022-10-15T11:40:33;16.92;;;14.32;;
55090;SDS011;40985;53.180;5.800;2022-10-15T11:46:33;15.35;;;12.98;;
55090;SDS011;40985;53.180;5.800;2022-10-15T11:49:35;16.60;;;13.75;;
55090;SDS011;40985;53.180;5.800;2022-10-15T11:52:11;15.10;;;13.13;;
55090;SDS011;40985;53.180;5.800;2022-10-15T11:55:01;14.02;;;12.52;;
55090;SDS011;40985;53.180;5.800;2022-10-15T11:57:36;15.88;;;12.50;;
55090;SDS011;40985;53.180;5.800;2022-10-15T12:03:17;13.73;;;11.85;;
55090;SDS011;40985;53.180;5.800;2022-10-15T12:05:49;14.82;;;12.07;;
55090;SDS011;40985;53.180;5.800;2022-10-15T12:08:17;14.02;;;12.02;;
55090;SDS011;40985;53.180;5.800;2022-10-15T12:11:07;13.90;;;11.50;;
55090;SDS011;40985;53.180;5.800;2022-10-15T12:14:01;12.70;;;11.38;;
55090;SDS011;40985;53.180;5.800;2022-10-15T12:22:30;12.68;;;11.45;;
55090;SDS011;40985;53.180;5.800;2022-10-15T12:24:58;12.25;;;10.95;;
55090;SDS011;40985;53.180;5.800;2022-10-15T12:27:25;12.77;;;11.57;;
55090;SDS011;40985;53.180;5.800;2022-10-15T12:32:28;12.98;;;11.65;;
55090;SDS011;40985;53.180;5.800;2022-10-15T12:37:40;12.63;;;11.40;;
55090;SDS011;40985;53.180;5.800;2022-10-15T12:42:55;14.55;;;12.55;;
55090;SDS011;40985;53.180;5.800;2022-10-15T12:45:28;14.35;;;12.85;;
55090;SDS011;40985;53.180;5.800;2022-10-15T12:50:40;14.05;;;12.48;;
55090;SDS011;40985;53.180;5.800;2022-10-15T12:56:12;13.68;;;12.35;;
55090;SDS011;40985;53.180;5.800;2022-10-15T12:58:44;13.90;;;12.50;;
55090;SDS011;40985;53.180;5.800;2022-10-15T13:11:45;14.18;;;12.77;;
55090;SDS011;40985;53.180;5.800;2022-10-15T13:14:25;14.82;;;13.23;;
55090;SDS011;40985;53.180;5.800;2022-10-15T13:16:54;17.27;;;12.60;;
55090;SDS011;40985;53.180;5.800;2022-10-15T13:19:22;13.07;;;11.68;;
55090;SDS011;40985;53.180;5.800;2022-10-15T13:21:58;12.32;;;10.82;;
55090;SDS011;40985;53.180;5.800;2022-10-15T13:24:29;13.43;;;11.60;;
55090;SDS011;40985;53.180;5.800;2022-10-15T13:27:11;15.00;;;11.40;;
55090;SDS011;40985;53.180;5.800;2022-10-15T13:29:56;13.90;;;11.00;;
55090;SDS011;40985;53.180;5.800;2022-10-15T13:32:30;14.13;;;11.02;;
55090;SDS011;40985;53.180;5.800;2022-10-15T13:35:08;11.87;;;10.30;;
55090;SDS011;40985;53.180;5.800;2022-10-15T13:40:02;12.77;;;10.77;;
55090;SDS011;40985;53.180;5.800;2022-10-15T13:42:29;14.07;;;11.10;;
55090;SDS011;40985;53.180;5.800;2022-10-15T13:47:34;14.20;;;11.18;;
55090;SDS011;40985;53.180;5.800;2022-10-15T13:50:22;11.73;;;10.52;;
55090;SDS011;40985;53.180;5.800;2022-10-15T13:52:58;12.75;;;10.32;;
55090;SDS011;40985;53.180;5.800;2022-10-15T13:55:29;13.68;;;10.77;;
55090;SDS011;40985;53.180;5.800;2022-10-15T14:00:26;22.00;;;10.98;;
55090;SDS011;40985;53.180;5.800;2022-10-15T14:05:33;18.15;;;12.20;;
55090;SDS011;40985;53.180;5.800;2022-10-15T14:07:58;13.88;;;10.75;;
55090;SDS011;40985;53.180;5.800;2022-10-15T14:10:24;12.15;;;9.05;;
55090;SDS011;40985;53.180;5.800;2022-10-15T14:12:50;16.13;;;10.77;;
55090;SDS011;40985;53.180;5.800;2022-10-15T14:18:04;18.50;;;12.10;;
55090;SDS011;40985;53.180;5.800;2022-10-15T14:20:30;14.82;;;10.55;;
55090;SDS011;40985;53.180;5.800;2022-10-15T14:22:56;13.75;;;9.88;;
55090;SDS011;40985;53.180;5.800;2022-10-15T14:25:23;13.90;;;9.43;;
55090;SDS011;40985;53.180;5.800;2022-10-15T14:27:50;10.73;;;8.60;;
55090;SDS011;40985;53.180;5.800;2022-10-15T14:30:20;11.45;;;8.70;;
55090;SDS011;40985;53.180;5.800;2022-10-15T14:32:57;8.73;;;7.40;;
55090;SDS011;40985;53.180;5.800;2022-10-15T14:35:24;13.48;;;7.65;;
55090;SDS011;40985;53.180;5.800;2022-10-15T14:38:00;9.05;;;6.57;;
55090;SDS011;40985;53.180;5.800;2022-10-15T14:40:32;11.13;;;7.40;;
55090;SDS011;40985;53.180;5.800;2022-10-15T14:45:28;4.53;;;4.13;;
55090;SDS011;40985;53.180;5.800;2022-10-15T14:47:56;4.40;;;4.00;;
55090;SDS011;40985;53.180;5.800;2022-10-15T14:50:25;4.68;;;4.07;;
55090;SDS011;40985;53.180;5.800;2022-10-15T14:52:56;4.63;;;4.15;;
55090;SDS011;40985;53.180;5.800;2022-10-15T14:55:30;3.55;;;3.33;;
55090;SDS011;40985;53.180;5.800;2022-10-15T14:58:23;4.63;;;4.20;;
55090;SDS011;40985;53.180;5.800;2022-10-15T15:00:57;3.40;;;3.20;;
55090;SDS011;40985;53.180;5.800;2022-10-15T15:03:29;5.63;;;4.30;;
55090;SDS011;40985;53.180;5.800;2022-10-15T15:06:02;4.18;;;3.97;;
55090;SDS011;40985;53.180;5.800;2022-10-15T15:08:28;4.78;;;4.38;;
55090;SDS011;40985;53.180;5.800;2022-10-15T15:10:54;4.50;;;3.92;;
55090;SDS011;40985;53.180;5.800;2022-10-15T15:13:25;4.20;;;3.80;;
55090;SDS011;40985;53.180;5.800;2022-10-15T15:15:52;4.57;;;4.28;;
55090;SDS011;40985;53.180;5.800;2022-10-15T15:18:18;4.63;;;4.22;;
55090;SDS011;40985;53.180;5.800;2022-10-15T15:20:45;5.65;;;5.18;;
55090;SDS011;40985;53.180;5.800;2022-10-15T15:23:13;5.57;;;5.18;;
55090;SDS011;40985;53.180;5.800;2022-10-15T15:25:43;5.45;;;5.05;;
55090;SDS011;40985;53.180;5.800;2022-10-15T15:28:16;6.13;;;5.47;;
55090;SDS011;40985;53.180;5.800;2022-10-15T15:30:54;6.28;;;5.78;;
55090;SDS011;40985;53.180;5.800;2022-10-15T15:33:22;4.57;;;4.38;;
55090;SDS011;40985;53.180;5.800;2022-10-15T15:35:52;5.55;;;5.15;;
55090;SDS011;40985;53.180;5.800;2022-10-15T15:38:27;5.38;;;4.97;;
55090;SDS011;40985;53.180;5.800;2022-10-15T15:40:54;4.43;;;4.13;;
55090;SDS011;40985;53.180;5.800;2022-10-15T15:43:25;4.93;;;4.38;;
55090;SDS011;40985;53.180;5.800;2022-10-15T15:45:51;5.30;;;3.95;;
55090;SDS011;40985;53.180;5.800;2022-10-15T15:48:17;5.05;;;4.50;;
55090;SDS011;40985;53.180;5.800;2022-10-15T15:50:42;4.18;;;3.67;;
55090;SDS011;40985;53.180;5.800;2022-10-15T15:53:09;4.40;;;4.00;;
55090;SDS011;40985;53.180;5.800;2022-10-15T15:55:36;4.30;;;4.00;;
55090;SDS011;40985;53.180;5.800;2022-10-15T15:58:02;3.55;;;3.13;;
55090;SDS011;40985;53.180;5.800;2022-10-15T16:00:28;4.10;;;2.47;;
55090;SDS011;40985;53.180;5.800;2022-10-15T16:02:54;3.20;;;2.60;;
55090;SDS011;40985;53.180;5.800;2022-10-15T16:05:20;4.20;;;2.65;;
55090;SDS011;40985;53.180;5.800;2022-10-15T16:07:47;4.85;;;3.42;;
55090;SDS011;40985;53.180;5.800;2022-10-15T16:10:13;4.68;;;3.33;;
55090;SDS011;40985;53.180;5.800;2022-10-15T16:12:39;6.90;;;4.43;;
55090;SDS011;40985;53.180;5.800;2022-10-15T16:15:05;4.80;;;4.18;;
55090;SDS011;40985;53.180;5.800;2022-10-15T16:17:31;4.05;;;3.67;;
55090;SDS011;40985;53.180;5.800;2022-10-15T16:19:57;9.68;;;4.35;;
55090;SDS011;40985;53.180;5.800;2022-10-15T16:22:23;3.15;;;1.77;;
55090;SDS011;40985;53.180;5.800;2022-10-15T16:24:49;2.58;;;2.30;;
55090;SDS011;40985;53.180;5.800;2022-10-15T16:27:14;5.93;;;2.03;;
55090;SDS011;40985;53.180;5.800;2022-10-15T16:29:40;6.40;;;1.55;;
55090;SDS011;40985;53.180;5.800;2022-10-15T16:32:06;4.22;;;1.77;;
55090;SDS011;40985;53.180;5.800;2022-10-15T16:34:32;7.13;;;1.65;;
55090;SDS011;40985;53.180;5.800;2022-10-15T16:36:57;5.18;;;0.90;;
55090;SDS011;40985;53.180;5.800;2022-10-15T16:39:23;6.15;;;0.70;;
55090;SDS011;40985;53.180;5.800;2022-10-15T16:41:49;4.93;;;0.82;;
55090;SDS011;40985;53.180;5.800;2022-10-15T16:44:14;8.45;;;0.88;;
55090;SDS011;40985;53.180;5.800;2022-10-15T16:46:40;9.13;;;0.65;;
55090;SDS011;40985;53.180;5.800;2022-10-15T16:49:06;6.35;;;0.45;;
55090;SDS011;40985;53.180;5.800;2022-10-15T16:51:32;7.32;;;0.73;;
55090;SDS011;40985;53.180;5.800;2022-10-15T16:53:58;6.00;;;0.63;;
55090;SDS011;40985;53.180;5.800;2022-10-15T16:56:25;5.57;;;0.38;;
55090;SDS011;40985;53.180;5.800;2022-10-15T16:58:53;7.85;;;0.93;;
55090;SDS011;40985;53.180;5.800;2022-10-15T17:01:20;7.53;;;0.55;;